KRBG - Roseburg, Oregon, USA
Updated: Tue, 28-Mar-2017 5:53pm PDT
Overcast
Overcast
 Wind from SSW
Wind: SSW 3 mph , 6 km/h
Temperature: 64°F , 18°C
Dew Point: 37°F , 3°C
Humidity: 37%
Barometer: 30.25 inHg , 1024.4 hPa
Clouds: Overcast
Visibility: 10 miles , 16 km
Cloud details: Overcast 7500 ft
2017/03/29 00:53 KRBG 290053Z AUTO 21003KT 10SM OVC075 18/03 A3025 RMK AO2 SLP244 T01780033

Metar display script from Saratoga-Weather.org